createdAt,value
2018-03-17T00:00:48.873Z,8.07
2018-03-17T00:03:16.971Z,6.53
2018-03-17T00:05:45.089Z,6.70
2018-03-17T00:08:13.199Z,9.40
2018-03-17T00:10:41.294Z,9.50
2018-03-17T00:13:10.239Z,5.60
2018-03-17T00:15:38.504Z,8.50
2018-03-17T00:18:06.677Z,7.37
2018-03-17T00:20:34.793Z,9.60
2018-03-17T00:23:02.912Z,4.83
2018-03-17T00:25:31.046Z,5.67
2018-03-17T00:27:59.137Z,6.30
2018-03-17T00:30:27.247Z,7.63
2018-03-17T00:32:55.359Z,5.97
2018-03-17T00:35:23.474Z,8.03
2018-03-17T00:37:51.577Z,5.73
2018-03-17T00:40:19.825Z,6.70
2018-03-17T00:42:48.369Z,8.67
2018-03-17T00:45:16.508Z,6.90
2018-03-17T00:47:44.626Z,6.60
2018-03-17T00:50:14.133Z,8.57
2018-03-17T00:52:43.050Z,6.10
2018-03-17T00:55:11.147Z,7.20
2018-03-17T00:57:39.305Z,5.27
2018-03-17T01:00:07.462Z,6.07
2018-03-17T01:02:35.568Z,6.87
2018-03-17T01:05:03.667Z,6.70
2018-03-17T01:07:31.768Z,9.13
2018-03-17T01:10:00.014Z,6.97
2018-03-17T01:12:28.128Z,10.27
2018-03-17T01:14:56.242Z,8.00
2018-03-17T01:17:24.464Z,5.87
2018-03-17T01:19:52.620Z,7.93
2018-03-17T01:22:21.506Z,6.77
2018-03-17T01:24:49.616Z,5.93
2018-03-17T01:27:17.728Z,6.20
2018-03-17T01:29:45.839Z,8.33
2018-03-17T01:32:13.997Z,6.20
2018-03-17T01:34:43.953Z,8.90
2018-03-17T01:37:12.052Z,5.70
2018-03-17T01:39:40.235Z,6.83
2018-03-17T01:42:08.511Z,5.47
2018-03-17T01:44:36.601Z,9.83
2018-03-17T01:47:04.702Z,6.60
2018-03-17T01:49:32.813Z,6.47
2018-03-17T01:52:01.253Z,5.70
2018-03-17T01:54:32.143Z,5.90
2018-03-17T01:57:00.245Z,6.37
2018-03-17T01:59:28.428Z,5.67
2018-03-17T02:01:56.539Z,8.37
2018-03-17T02:04:24.660Z,6.57
2018-03-17T02:06:52.750Z,6.20
2018-03-17T02:09:20.846Z,8.00
2018-03-17T02:11:48.974Z,9.03
2018-03-17T02:14:17.074Z,5.47
2018-03-17T02:16:45.210Z,5.17
2018-03-17T02:19:13.299Z,6.30
2018-03-17T02:21:42.170Z,5.97
2018-03-17T02:24:10.302Z,6.13
2018-03-17T02:42:43.425Z,8.97
2018-03-17T02:45:11.515Z,6.13
2018-03-17T02:47:39.631Z,6.83
2018-03-17T02:50:07.733Z,4.87
2018-03-17T02:52:35.985Z,7.37
2018-03-17T02:55:04.655Z,8.67
2018-03-17T02:57:32.737Z,7.27
2018-03-17T03:00:00.865Z,12.80
2018-03-17T03:02:28.999Z,7.80
2018-03-17T03:04:57.114Z,5.80
2018-03-17T03:07:25.370Z,7.03
2018-03-17T03:09:53.543Z,6.00
2018-03-17T03:12:21.779Z,5.50
2018-03-17T03:14:50.036Z,5.97
2018-03-17T03:17:18.359Z,6.00
2018-03-17T03:19:46.534Z,7.30
2018-03-17T03:22:14.644Z,5.37
2018-03-17T03:24:42.738Z,5.90
2018-03-17T03:27:10.859Z,6.33
2018-03-17T03:29:38.960Z,6.50
2018-03-17T03:32:07.088Z,8.87
2018-03-17T03:34:35.192Z,6.73
2018-03-17T03:37:03.289Z,6.97
2018-03-17T03:39:31.424Z,4.90
2018-03-17T03:41:59.536Z,5.40
2018-03-17T03:44:28.264Z,4.47
2018-03-17T03:46:56.360Z,5.40
2018-03-17T03:49:24.490Z,5.70
2018-03-17T03:51:52.639Z,4.83
2018-03-17T03:54:21.513Z,7.47
2018-03-17T03:56:54.183Z,5.77
2018-03-17T03:59:22.287Z,6.00
2018-03-17T04:01:50.387Z,6.07
2018-03-17T04:04:18.962Z,5.13
2018-03-17T04:06:47.137Z,8.17
2018-03-17T04:09:15.288Z,5.57
2018-03-17T04:11:43.403Z,6.00
2018-03-17T04:14:11.544Z,6.60
2018-03-17T04:16:39.703Z,8.73
2018-03-17T04:19:08.653Z,6.70
2018-03-17T04:21:36.725Z,6.10
2018-03-17T04:24:04.909Z,6.80
2018-03-17T04:26:37.826Z,7.13
2018-03-17T04:29:05.932Z,5.57
2018-03-17T04:31:34.033Z,6.23
2018-03-17T04:34:02.124Z,7.23
2018-03-17T04:36:30.239Z,6.90
2018-03-17T04:38:58.398Z,7.97
2018-03-17T04:41:26.538Z,6.87
2018-03-17T04:43:54.755Z,5.63
2018-03-17T04:46:23.006Z,6.13
2018-03-17T04:48:51.059Z,5.07
2018-03-17T04:51:19.244Z,5.13
2018-03-17T04:53:47.282Z,4.53
2018-03-17T04:56:15.372Z,4.20
2018-03-17T04:58:43.463Z,4.70
2018-03-17T05:01:11.942Z,4.87
2018-03-17T05:03:40.881Z,4.10
2018-03-17T05:06:09.036Z,4.77
2018-03-17T05:08:37.164Z,5.27
2018-03-17T05:11:05.260Z,7.73
2018-03-17T05:13:33.918Z,4.73
2018-03-17T05:16:02.034Z,5.97
2018-03-17T05:18:30.120Z,4.20
2018-03-17T05:20:58.286Z,5.17
2018-03-17T05:23:26.374Z,5.50
2018-03-17T05:25:54.488Z,4.10
2018-03-17T05:28:22.592Z,5.17
2018-03-17T05:30:51.487Z,3.77
2018-03-17T05:33:19.602Z,5.17
2018-03-17T05:35:47.765Z,6.20
2018-03-17T05:38:15.890Z,7.27
2018-03-17T05:40:44.030Z,7.20
2018-03-17T05:43:12.243Z,8.17
2018-03-17T05:45:40.375Z,5.23
2018-03-17T05:48:08.610Z,6.00
2018-03-17T05:50:36.720Z,6.23
2018-03-17T05:53:04.840Z,5.00
2018-03-17T05:55:32.936Z,6.23
2018-03-17T05:58:01.037Z,6.53
2018-03-17T06:00:29.280Z,8.50
2018-03-17T06:02:58.033Z,5.67
2018-03-17T06:05:26.955Z,5.83
2018-03-17T06:07:55.177Z,7.60
2018-03-17T06:10:23.335Z,5.60
2018-03-17T06:12:51.427Z,6.87
2018-03-17T06:15:19.951Z,5.70
2018-03-17T06:30:43.686Z,6.33
2018-03-17T06:33:11.766Z,7.57
2018-03-17T06:35:39.896Z,8.37
2018-03-17T06:38:08.030Z,9.43
2018-03-17T06:40:36.128Z,8.10
2018-03-17T06:43:04.242Z,9.23
2018-03-17T06:45:33.010Z,8.90
2018-03-17T06:48:01.308Z,8.90
2018-03-17T06:50:29.420Z,10.93
2018-03-17T06:52:57.540Z,11.23
2018-03-17T06:55:26.424Z,11.63
2018-03-17T06:57:54.564Z,14.53
2018-03-17T07:00:22.686Z,9.53
2018-03-17T07:02:50.784Z,12.10
2018-03-17T07:05:19.036Z,12.17
2018-03-17T07:07:47.140Z,12.40
2018-03-17T07:10:15.265Z,14.80
2018-03-17T07:12:43.361Z,13.07
2018-03-17T07:15:11.461Z,11.33
2018-03-17T07:17:39.587Z,12.83
2018-03-17T07:20:07.772Z,16.90
2018-03-17T07:22:36.651Z,19.80
2018-03-17T07:25:04.751Z,20.20
2018-03-17T07:27:32.908Z,35.10
2018-03-17T07:30:01.044Z,52.27
2018-03-17T07:32:29.312Z,99.03
2018-03-17T07:35:01.635Z,117.57
2018-03-17T07:37:30.038Z,100.87
2018-03-17T07:39:58.238Z,90.10
2018-03-17T07:42:26.361Z,67.83
2018-03-17T07:44:54.580Z,58.27
2018-03-17T07:47:28.452Z,40.20
2018-03-17T07:50:12.418Z,37.33
2018-03-17T07:52:42.029Z,31.67
2018-03-17T07:55:10.922Z,29.40
2018-03-17T07:57:42.218Z,24.07
2018-03-17T08:00:11.610Z,19.17
2018-03-17T08:02:39.743Z,19.27
2018-03-17T08:05:08.044Z,19.67
2018-03-17T08:07:36.980Z,18.50
2018-03-17T08:10:05.186Z,18.70
2018-03-17T08:12:37.264Z,19.03
2018-03-17T08:15:05.436Z,17.63
2018-03-17T08:17:33.622Z,20.30
2018-03-17T08:20:02.068Z,19.27
2018-03-17T08:22:30.843Z,19.30
2018-03-17T08:24:59.753Z,20.10
2018-03-17T08:27:27.872Z,20.53
2018-03-17T08:29:55.999Z,18.93
2018-03-17T08:32:24.138Z,21.60
2018-03-17T08:34:52.269Z,20.80
2018-03-17T08:37:21.239Z,22.60
2018-03-17T08:39:49.451Z,23.50
2018-03-17T08:42:18.527Z,20.73
2018-03-17T08:44:46.922Z,20.87
2018-03-17T08:47:15.119Z,20.60
2018-03-17T08:49:43.268Z,22.60
2018-03-17T08:52:12.101Z,24.67
2018-03-17T08:54:40.874Z,23.47
2018-03-17T08:57:09.182Z,26.33
2018-03-17T08:59:37.338Z,21.67
2018-03-17T09:02:05.460Z,20.67
2018-03-17T09:04:33.592Z,21.17
2018-03-17T09:07:01.737Z,23.07
2018-03-17T09:09:30.625Z,21.07
2018-03-17T09:11:58.834Z,23.80
2018-03-17T09:14:26.972Z,22.03
2018-03-17T09:16:55.108Z,21.70
2018-03-17T09:19:23.231Z,22.87
2018-03-17T09:21:51.346Z,19.73
2018-03-17T09:24:19.529Z,24.23
2018-03-17T09:26:47.673Z,21.83
2018-03-17T09:29:15.783Z,21.83
2018-03-17T09:31:43.925Z,25.33
2018-03-17T09:34:12.733Z,20.30
2018-03-17T09:36:40.877Z,22.03
2018-03-17T09:39:09.793Z,19.80
2018-03-17T09:41:37.917Z,18.70
2018-03-17T09:44:06.047Z,17.77
2018-03-17T09:46:34.419Z,17.43
2018-03-17T09:49:02.597Z,19.37
2018-03-17T09:51:30.757Z,18.03
2018-03-17T09:54:00.181Z,18.10
2018-03-17T09:56:28.359Z,17.67
2018-03-17T09:58:57.485Z,18.10
2018-03-17T10:01:25.586Z,19.23
2018-03-17T10:03:54.262Z,18.70
2018-03-17T10:06:22.401Z,16.43
2018-03-17T10:08:51.290Z,15.73
2018-03-17T10:11:19.638Z,16.57
2018-03-17T10:13:48.518Z,15.43
2018-03-17T10:16:17.024Z,18.60
2018-03-17T10:18:45.206Z,20.43
2018-03-17T10:21:13.394Z,17.80
2018-03-17T10:23:41.734Z,18.07
2018-03-17T10:26:09.996Z,19.00
2018-03-17T10:28:38.150Z,18.63
2018-03-17T10:31:06.271Z,17.33
2018-03-17T10:33:34.443Z,21.90
2018-03-17T10:36:02.635Z,16.73
2018-03-17T10:38:31.368Z,19.97
2018-03-17T10:40:59.585Z,21.23
2018-03-17T10:43:27.761Z,17.30
2018-03-17T10:45:56.956Z,19.57
2018-03-17T10:48:26.075Z,19.23
2018-03-17T10:50:54.273Z,23.13
2018-03-17T10:53:22.423Z,21.20
2018-03-17T10:55:50.591Z,22.00
2018-03-17T10:58:18.809Z,23.13
2018-03-17T11:00:46.987Z,24.33
2018-03-17T11:03:15.135Z,22.93
2018-03-17T11:05:43.281Z,27.63
2018-03-17T11:08:12.945Z,27.13
2018-03-17T11:10:41.375Z,24.87
2018-03-17T11:13:09.581Z,30.10
2018-03-17T11:15:37.761Z,26.93
2018-03-17T11:18:06.683Z,25.60
2018-03-17T11:20:34.837Z,27.63
2018-03-17T11:23:03.068Z,25.83
2018-03-17T11:25:31.136Z,27.37
2018-03-17T11:28:00.088Z,28.70
2018-03-17T11:30:28.325Z,33.70
2018-03-17T11:32:56.499Z,32.80
2018-03-17T11:35:24.738Z,32.40
2018-03-17T11:37:52.909Z,34.63
2018-03-17T11:40:21.452Z,32.73
2018-03-17T11:42:49.712Z,32.20
2018-03-17T11:45:17.823Z,34.73
2018-03-17T11:47:46.676Z,36.53
2018-03-17T11:50:14.824Z,34.43
2018-03-17T11:52:42.939Z,33.40
2018-03-17T11:55:11.149Z,33.97
2018-03-17T12:10:38.133Z,22.77
2018-03-17T12:13:06.266Z,20.33
2018-03-17T12:15:35.893Z,20.00
2018-03-17T12:18:04.015Z,19.13
2018-03-17T12:20:32.217Z,21.73
2018-03-17T12:23:00.438Z,19.20
2018-03-17T12:25:28.676Z,19.50
2018-03-17T12:27:57.605Z,23.47
2018-03-17T12:30:26.089Z,19.33
2018-03-17T12:32:54.185Z,21.40
2018-03-17T12:35:22.457Z,24.57
2018-03-17T12:37:51.305Z,18.17
2018-03-17T12:40:21.709Z,23.57
2018-03-17T12:42:47.714Z,21.57
2018-03-17T12:45:15.829Z,21.10
2018-03-17T12:47:44.362Z,23.43
2018-03-17T12:50:12.480Z,22.43
2018-03-17T12:52:41.253Z,23.03
2018-03-17T12:55:09.464Z,18.40
2018-03-17T12:57:37.718Z,21.47
2018-03-17T13:00:06.527Z,19.90
2018-03-17T13:02:34.623Z,18.53
2018-03-17T13:05:02.728Z,19.07
2018-03-17T13:07:34.974Z,18.10
2018-03-17T13:10:03.139Z,20.60
2018-03-17T13:12:34.942Z,20.17
2018-03-17T13:15:03.092Z,16.17
2018-03-17T13:17:31.327Z,17.33
2018-03-17T13:19:59.455Z,15.60
2018-03-17T13:22:27.570Z,15.83
2018-03-17T13:24:55.694Z,13.73
2018-03-17T13:27:42.216Z,11.90
2018-03-17T13:30:10.448Z,12.53
2018-03-17T13:36:00.892Z,13.93
2018-03-17T13:38:29.018Z,21.27
2018-03-17T13:40:57.619Z,14.37
2018-03-17T13:53:05.842Z,16.00
2018-03-17T13:55:33.940Z,14.50
2018-03-17T13:58:02.092Z,12.63
2018-03-17T14:00:30.304Z,15.47
2018-03-17T14:02:58.499Z,13.93
2018-03-17T14:05:26.719Z,12.17
2018-03-17T14:07:54.828Z,13.60
2018-03-17T14:10:23.260Z,12.43
2018-03-17T14:12:52.138Z,13.40
2018-03-17T14:15:21.020Z,14.17
2018-03-17T14:17:49.530Z,12.63
2018-03-17T14:20:17.670Z,13.47
2018-03-17T14:22:45.822Z,13.73
2018-03-17T14:25:13.935Z,15.30
2018-03-17T14:27:42.070Z,15.07
2018-03-17T14:30:10.921Z,13.00
2018-03-17T14:32:39.149Z,17.70
2018-03-17T14:35:07.500Z,13.10
2018-03-17T14:37:35.663Z,13.43
2018-03-17T14:40:03.900Z,14.17
2018-03-17T14:42:32.069Z,15.27
2018-03-17T14:45:00.466Z,15.53
2018-03-17T14:47:28.592Z,14.13
2018-03-17T14:49:56.697Z,14.63
2018-03-17T14:52:29.226Z,17.13
2018-03-17T14:54:57.412Z,16.47
2018-03-17T14:57:25.526Z,19.33
2018-03-17T14:59:53.679Z,21.20
2018-03-17T15:02:21.794Z,18.93
2018-03-17T15:04:50.088Z,17.37
2018-03-17T15:07:18.263Z,19.00
2018-03-17T15:09:47.134Z,18.93
2018-03-17T15:12:15.334Z,17.37
2018-03-17T15:14:43.479Z,18.77
2018-03-17T15:17:11.609Z,19.63
2018-03-17T15:19:39.756Z,18.00
2018-03-17T15:22:07.879Z,19.33
2018-03-17T15:24:35.992Z,19.33
2018-03-17T15:27:04.120Z,18.53
2018-03-17T15:29:32.240Z,19.33
2018-03-17T15:32:00.348Z,20.47
2018-03-17T15:34:28.563Z,22.00
2018-03-17T15:36:56.704Z,20.97
2018-03-17T15:39:24.857Z,22.53
2018-03-17T15:41:53.320Z,21.37
2018-03-17T15:44:21.444Z,22.87
2018-03-17T15:46:49.585Z,20.80
2018-03-17T15:49:18.057Z,22.70
2018-03-17T15:51:46.227Z,18.77
2018-03-17T15:54:14.343Z,21.63
2018-03-17T15:56:42.461Z,21.27
2018-03-17T15:59:10.595Z,18.63
2018-03-17T16:01:38.747Z,23.60
2018-03-17T16:04:06.884Z,22.77
2018-03-17T16:06:35.123Z,25.07
2018-03-17T16:09:04.807Z,23.70
2018-03-17T16:24:27.939Z,20.23
2018-03-17T16:26:56.061Z,23.23
2018-03-17T16:29:24.214Z,22.73
2018-03-17T16:31:52.439Z,25.17
2018-03-17T16:34:20.568Z,27.20
2018-03-17T16:36:48.718Z,22.33
2018-03-17T16:39:16.889Z,23.17
2018-03-17T16:41:45.051Z,27.03
2018-03-17T16:44:13.745Z,21.53
2018-03-17T16:46:41.959Z,25.17
2018-03-17T16:49:10.090Z,23.57
2018-03-17T16:51:42.292Z,24.20
2018-03-17T16:54:10.579Z,26.30
2018-03-17T16:56:38.791Z,26.03
2018-03-17T16:59:07.023Z,25.10
2018-03-17T17:01:35.189Z,26.73
2018-03-17T17:04:03.328Z,24.50
2018-03-17T17:06:31.529Z,26.70
2018-03-17T17:09:03.509Z,22.63
2018-03-17T17:11:32.629Z,26.80
2018-03-17T17:14:00.873Z,23.63
2018-03-17T17:16:29.101Z,24.20
2018-03-17T17:18:57.231Z,22.60
2018-03-17T17:21:25.369Z,27.50
2018-03-17T17:23:53.594Z,24.87
2018-03-17T17:26:22.357Z,26.40
2018-03-17T17:28:50.714Z,25.87
2018-03-17T17:31:18.836Z,24.67
2018-03-17T17:33:46.986Z,28.33
2018-03-17T17:36:15.118Z,28.43
2018-03-17T17:38:43.230Z,27.70
2018-03-17T17:41:11.372Z,25.47
2018-03-17T17:43:39.534Z,26.83
2018-03-17T17:46:07.686Z,28.20
2018-03-17T17:48:35.790Z,25.03
2018-03-17T17:51:04.688Z,26.20
2018-03-17T17:53:32.824Z,28.27
2018-03-17T17:56:00.956Z,26.57
2018-03-17T17:58:29.056Z,23.17
2018-03-17T18:00:57.172Z,21.20
2018-03-17T18:03:26.056Z,19.83
2018-03-17T18:05:54.575Z,17.97
2018-03-17T18:08:22.724Z,17.40
2018-03-17T18:10:50.876Z,18.73
2018-03-17T18:13:27.165Z,18.93
2018-03-17T18:15:56.041Z,18.87
2018-03-17T18:18:24.639Z,20.60
2018-03-17T18:20:52.895Z,19.53
2018-03-17T18:23:21.426Z,21.97
2018-03-17T18:25:49.653Z,19.43
2018-03-17T18:28:17.748Z,18.17
2018-03-17T18:30:45.921Z,15.93
2018-03-17T18:33:14.047Z,21.03
2018-03-17T18:35:42.198Z,20.07
2018-03-17T18:38:10.311Z,20.60
2018-03-17T18:40:39.242Z,20.87
2018-03-17T18:43:07.346Z,22.43
2018-03-17T18:45:35.461Z,21.13
2018-03-17T18:48:03.583Z,21.60
2018-03-17T18:50:31.699Z,26.23
2018-03-17T18:52:59.865Z,23.80
2018-03-17T18:55:27.960Z,24.23
2018-03-17T18:57:56.478Z,24.33
2018-03-17T19:00:24.612Z,23.93
2018-03-17T19:02:52.952Z,22.37
2018-03-17T19:05:21.418Z,24.10
2018-03-17T19:07:49.578Z,24.67
2018-03-17T19:23:12.730Z,19.50
2018-03-17T19:25:40.946Z,19.40
2018-03-17T19:28:09.106Z,21.00
2018-03-17T19:30:37.765Z,21.63
2018-03-17T19:33:05.863Z,21.60
2018-03-17T19:35:34.007Z,20.83
2018-03-17T19:38:02.181Z,20.07
2018-03-17T19:40:30.370Z,19.67
2018-03-17T19:42:58.473Z,20.90
2018-03-17T19:45:30.751Z,23.00
2018-03-17T19:47:58.923Z,21.60
2018-03-17T19:50:28.349Z,21.67
2018-03-17T19:52:56.497Z,21.77
2018-03-17T19:55:24.687Z,23.27
2018-03-17T19:57:52.795Z,23.87
2018-03-17T20:00:20.931Z,22.90
2018-03-17T20:02:49.097Z,20.43
2018-03-17T20:05:21.084Z,26.90
2018-03-17T20:07:49.263Z,27.13
2018-03-17T20:10:17.427Z,29.97
2018-03-17T20:12:45.547Z,25.53
2018-03-17T20:15:13.667Z,23.10
2018-03-17T20:17:41.881Z,25.10
2018-03-17T20:20:10.096Z,24.90
2018-03-17T20:22:38.220Z,27.17
2018-03-17T20:25:06.326Z,26.03
2018-03-17T20:27:34.436Z,30.00
2018-03-17T20:30:02.587Z,24.67
2018-03-17T20:32:31.179Z,27.30
2018-03-17T20:35:00.159Z,25.53
2018-03-17T20:37:28.288Z,27.10
2018-03-17T20:39:56.438Z,25.80
2018-03-17T20:42:24.642Z,27.00
2018-03-17T20:44:52.795Z,27.37
2018-03-17T20:47:20.935Z,24.73
2018-03-17T20:49:49.080Z,26.17
2018-03-17T20:52:17.209Z,25.20
2018-03-17T20:54:45.321Z,29.63
2018-03-17T20:57:13.440Z,25.07
2018-03-17T20:59:41.562Z,29.27
2018-03-17T21:02:09.772Z,25.17
2018-03-17T21:04:37.890Z,27.30
2018-03-17T21:07:06.192Z,28.13
2018-03-17T21:09:34.313Z,27.57
2018-03-17T21:12:02.439Z,29.70
2018-03-17T21:14:30.558Z,29.50
2018-03-17T21:16:58.671Z,28.53
2018-03-17T21:19:26.825Z,29.07
2018-03-17T21:21:54.933Z,30.87
2018-03-17T21:24:23.092Z,27.23
2018-03-17T21:26:51.369Z,30.03
2018-03-17T21:29:19.627Z,26.37
2018-03-17T21:31:47.847Z,30.30
2018-03-17T21:34:16.800Z,30.40
2018-03-17T21:36:44.929Z,29.87
2018-03-17T21:39:13.080Z,28.37
2018-03-17T21:41:41.212Z,31.43
2018-03-17T21:44:09.345Z,30.07
2018-03-17T21:46:37.544Z,29.53
2018-03-17T21:49:05.658Z,31.77
2018-03-17T21:51:33.775Z,30.90
2018-03-17T21:54:01.958Z,32.10
2018-03-17T21:56:30.849Z,33.73
2018-03-17T21:58:58.978Z,33.83
2018-03-17T22:01:27.107Z,36.90
2018-03-17T22:03:55.232Z,34.50
2018-03-17T22:06:23.342Z,36.13
2018-03-17T22:08:51.578Z,35.13
2018-03-17T22:11:19.748Z,35.03
2018-03-17T22:13:48.760Z,33.73
2018-03-17T22:16:16.897Z,38.30
2018-03-17T22:18:45.022Z,38.27
2018-03-17T22:21:13.144Z,33.80
2018-03-17T22:23:41.289Z,37.13
2018-03-17T22:26:09.529Z,36.20
2018-03-17T22:28:37.936Z,30.97
2018-03-17T22:31:06.042Z,32.17
2018-03-17T22:33:34.157Z,38.20
2018-03-17T22:36:02.297Z,31.53
2018-03-17T22:38:30.630Z,34.73
2018-03-17T22:40:58.864Z,33.70
2018-03-17T22:43:26.988Z,32.53
2018-03-17T22:45:55.143Z,34.53
2018-03-17T22:48:23.239Z,31.40
2018-03-17T22:50:51.411Z,34.83
2018-03-17T22:53:19.523Z,32.33
2018-03-17T22:55:47.789Z,34.50
2018-03-17T22:58:15.961Z,29.63
2018-03-17T23:00:44.079Z,32.80
2018-03-17T23:03:12.978Z,30.40
2018-03-17T23:05:41.175Z,30.77
2018-03-17T23:08:09.456Z,31.20
2018-03-17T23:10:37.669Z,30.57
2018-03-17T23:13:05.907Z,31.00
2018-03-17T23:15:34.109Z,28.10
2018-03-17T23:18:02.349Z,31.33
2018-03-17T23:20:30.523Z,31.50
2018-03-17T23:22:58.619Z,30.70
2018-03-17T23:38:21.863Z,31.17
2018-03-17T23:40:50.012Z,28.50
2018-03-17T23:43:18.117Z,31.70
2018-03-17T23:45:46.316Z,37.07
2018-03-17T23:48:14.590Z,33.67
2018-03-17T23:50:42.798Z,33.57
2018-03-17T23:53:11.060Z,30.63
2018-03-17T23:55:39.305Z,30.43
2018-03-17T23:58:07.550Z,30.50
